Time;durP1;ratioP1;P1;durP2;ratioP2;P2;SDS_P1;SDS_P2;PMS_P1;PMS_P2;Temp;Humidity;BMP_temperature;BMP_pressure;BME280_temperature;BME280_humidity;BME280_pressure;Samples;Min_cycle;Max_cycle;Signal;HPM_P1;HPM_P2
2022/05/26 00:00:09;;;;;;;2.97;1.60;;;16.10;99.90;;;;;;5084907;28;20223;-63
2022/05/26 00:02:35;;;;;;;2.92;1.80;;;16.10;99.90;;;;;;5085498;28;20174;-63
2022/05/26 00:05:01;;;;;;;1.75;1.58;;;16.10;99.90;;;;;;5084820;28;20640;-62
2022/05/26 00:07:26;;;;;;;2.15;1.55;;;16.10;99.90;;;;;;5086242;28;20614;-63
2022/05/26 00:09:52;;;;;;;2.70;1.80;;;16.10;99.90;;;;;;5078160;28;20166;-63
2022/05/26 00:12:19;;;;;;;4.85;1.67;;;16.10;99.90;;;;;;5075237;28;20186;-63
2022/05/26 00:14:45;;;;;;;2.10;1.70;;;16.10;99.90;;;;;;5075209;28;20687;-63
2022/05/26 00:17:10;;;;;;;1.97;1.70;;;16.20;99.90;;;;;;5075306;28;20238;-63
2022/05/26 00:19:36;;;;;;;2.10;1.80;;;16.10;99.90;;;;;;5074893;28;20217;-61
2022/05/26 00:22:02;;;;;;;1.60;1.50;;;16.10;99.90;;;;;;5075475;28;20166;-62
2022/05/26 00:24:28;;;;;;;4.57;1.80;;;16.20;99.90;;;;;;5075512;28;20256;-63
2022/05/26 00:26:53;;;;;;;2.30;1.80;;;16.30;99.90;;;;;;5074857;28;20572;-62
2022/05/26 00:29:19;;;;;;;3.27;2.20;;;16.10;99.90;;;;;;5074852;28;20552;-63
2022/05/26 00:31:44;;;;;;;3.90;2.10;;;15.90;99.90;;;;;;5074632;28;20167;-62
2022/05/26 00:34:10;;;;;;;3.53;2.60;;;16.00;99.90;;;;;;5075113;28;20172;-62
2022/05/26 00:36:40;;;;;;;2.10;1.90;;;16.10;99.90;;;;;;5074541;28;20193;-61
2022/05/26 00:39:14;;;;;;;3.67;1.70;;;16.00;99.90;;;;;;5074914;28;20265;-62
2022/05/26 00:41:42;;;;;;;5.43;1.80;;;15.80;99.90;;;;;;5074646;28;20199;-62
2022/05/26 00:44:09;;;;;;;3.10;1.53;;;15.50;99.90;;;;;;5074581;28;20700;-62
2022/05/26 00:46:40;;;;;;;3.20;1.80;;;15.50;99.90;;;;;;5074739;28;20217;-62
2022/05/26 00:49:13;;;;;;;3.40;1.80;;;15.50;99.90;;;;;;5074236;28;20599;-62
2022/05/26 00:51:39;;;;;;;3.03;1.90;;;15.40;99.90;;;;;;5074292;28;20178;-62
2022/05/26 00:54:12;;;;;;;2.13;1.47;;;15.50;99.90;;;;;;5074147;28;20187;-61
2022/05/26 00:56:41;;;;;;;2.93;1.70;;;15.20;99.90;;;;;;5076457;28;20162;-62
2022/05/26 00:59:33;;;;;;;2.43;1.70;;;15.10;99.90;;;;;;5075618;28;20217;-62
2022/05/26 01:01:59;;;;;;;2.83;1.87;;;15.00;99.90;;;;;;5063588;28;20207;-63
2022/05/26 01:04:29;;;;;;;2.10;1.70;;;14.90;99.90;;;;;;5074719;28;20203;-62
2022/05/26 01:07:07;;;;;;;2.10;1.60;;;14.90;99.90;;;;;;5074443;28;20175;-61
2022/05/26 01:09:33;;;;;;;4.13;2.13;;;15.10;99.90;;;;;;5055819;28;20513;-61
2022/05/26 01:11:58;;;;;;;3.80;1.70;;;15.20;99.90;;;;;;5074491;28;20163;-62
2022/05/26 01:14:32;;;;;;;5.07;1.50;;;15.10;99.90;;;;;;5074011;28;20174;-61
2022/05/26 01:17:28;;;;;;;2.33;1.50;;;15.10;99.90;;;;;;5073755;28;20633;-63
2022/05/26 01:20:12;;;;;;;2.53;1.60;;;15.10;99.90;;;;;;5073530;28;20588;-62
2022/05/26 01:23:11;;;;;;;5.87;1.60;;;15.00;99.90;;;;;;5074323;28;20234;-62
2022/05/26 01:26:01;;;;;;;4.07;1.50;;;15.10;99.90;;;;;;5073635;28;20513;-61
2022/05/26 01:28:47;;;;;;;1.43;1.33;;;15.10;99.90;;;;;;5073673;28;20166;-63
2022/05/26 01:31:43;;;;;;;5.93;2.10;;;15.00;99.90;;;;;;5073603;28;20170;-62
2022/05/26 01:34:52;;;;;;;1.73;1.60;;;15.00;99.90;;;;;;5073420;28;20168;-63
2022/05/26 01:37:36;;;;;;;2.30;1.50;;;15.20;99.90;;;;;;5069114;28;20202;-62
2022/05/26 01:40:37;;;;;;;1.83;1.40;;;15.00;99.90;;;;;;5073538;28;20207;-62
2022/05/26 01:43:15;;;;;;;2.60;1.70;;;14.80;99.90;;;;;;5074053;28;20244;-62
2022/05/26 01:46:19;;;;;;;2.77;1.40;;;14.90;99.90;;;;;;5073684;28;20199;-63
2022/05/26 01:49:04;;;;;;;2.53;1.60;;;14.80;99.90;;;;;;5072747;28;20244;-62
2022/05/26 01:51:37;;;;;;;3.47;1.90;;;14.80;99.90;;;;;;5073638;28;20250;-62
2022/05/26 01:54:41;;;;;;;1.57;1.33;;;14.80;99.90;;;;;;5074009;28;20175;-62
2022/05/26 01:57:16;;;;;;;1.80;1.40;;;14.90;99.90;;;;;;5073559;28;20623;-62
2022/05/26 01:59:54;;;;;;;1.70;1.30;;;14.90;99.90;;;;;;5074453;28;20360;-64
2022/05/26 02:02:24;;;;;;;2.17;1.30;;;14.70;99.90;;;;;;5075856;28;20343;-63
2022/05/26 02:04:57;;;;;;;1.77;1.30;;;14.70;99.90;;;;;;5082559;28;20199;-66
2022/05/26 02:07:23;;;;;;;1.37;1.27;;;14.80;99.90;;;;;;5086817;28;20179;-63
2022/05/26 02:09:52;;;;;;;2.57;1.63;;;14.90;99.90;;;;;;5088556;28;20159;-61
2022/05/26 02:12:25;;;;;;;2.73;1.50;;;15.20;99.90;;;;;;5090791;28;20218;-62
2022/05/26 02:14:56;;;;;;;4.77;1.37;;;15.20;99.90;;;;;;5073720;28;20228;-62
2022/05/26 02:17:34;;;;;;;3.13;1.27;;;15.20;99.90;;;;;;5073579;28;20167;-64
2022/05/26 02:20:07;;;;;;;1.43;1.20;;;15.40;99.90;;;;;;5073077;28;20151;-62
2022/05/26 02:22:39;;;;;;;1.20;1.10;;;15.10;99.90;;;;;;5081435;28;20595;-62
2022/05/26 02:25:16;;;;;;;1.40;1.30;;;15.30;99.90;;;;;;5091751;28;20170;-62
2022/05/26 02:27:43;;;;;;;2.60;1.40;;;15.30;99.90;;;;;;5087940;28;20163;-61
2022/05/26 02:30:12;;;;;;;2.23;1.20;;;15.30;99.90;;;;;;5077649;28;20159;-62
2022/05/26 02:32:47;;;;;;;2.23;1.20;;;15.40;99.90;;;;;;5077080;28;20156;-63
2022/05/26 02:35:20;;;;;;;1.50;1.17;;;15.50;99.90;;;;;;5077099;28;20167;-63
2022/05/26 02:37:49;;;;;;;1.33;1.20;;;15.30;99.90;;;;;;5077394;28;20170;-63
2022/05/26 02:40:15;;;;;;;2.50;1.30;;;15.40;99.90;;;;;;5077172;28;20242;-61
2022/05/26 02:42:51;;;;;;;1.30;1.20;;;15.50;99.90;;;;;;5076698;28;20171;-62
2022/05/26 02:45:27;;;;;;;1.87;1.23;;;15.60;99.90;;;;;;5076702;28;20163;-63
2022/05/26 02:48:07;;;;;;;3.73;1.40;;;15.50;99.90;;;;;;5077017;28;20160;-61
2022/05/26 02:50:54;;;;;;;1.40;1.30;;;15.40;99.90;;;;;;5077072;28;20159;-62
2022/05/26 02:53:23;;;;;;;1.67;1.10;;;15.50;99.90;;;;;;5079062;28;20174;-62
2022/05/26 02:56:27;;;;;;;1.53;1.30;;;15.40;99.90;;;;;;5081436;28;20171;-62
2022/05/26 02:59:17;;;;;;;1.10;1.00;;;15.40;99.90;;;;;;5082809;28;20242;-62
2022/05/26 03:01:57;;;;;;;1.33;1.10;;;15.50;99.90;;;;;;5080363;28;20321;-63
2022/05/26 03:04:30;;;;;;;1.70;1.40;;;15.40;99.90;;;;;;5076379;28;20234;-61
2022/05/26 03:07:06;;;;;;;3.33;1.00;;;15.50;99.90;;;;;;5076269;28;20255;-62
2022/05/26 03:09:37;;;;;;;2.17;1.50;;;15.50;99.90;;;;;;5076932;28;20294;-62
2022/05/26 03:12:03;;;;;;;1.90;1.67;;;15.50;99.90;;;;;;5076547;28;20205;-62
2022/05/26 03:14:29;;;;;;;4.60;1.30;;;15.50;99.90;;;;;;5076800;28;20290;-63
2022/05/26 03:16:55;;;;;;;1.30;1.20;;;15.40;99.90;;;;;;5076057;28;20556;-62
2022/05/26 03:19:21;;;;;;;5.97;1.50;;;15.50;99.90;;;;;;5076184;28;20198;-62
2022/05/26 03:21:47;;;;;;;3.83;1.30;;;15.50;99.90;;;;;;5076213;28;20171;-62
2022/05/26 03:24:13;;;;;;;3.00;1.37;;;15.50;99.90;;;;;;5076339;28;20635;-62
2022/05/26 03:26:39;;;;;;;2.23;1.30;;;15.70;99.90;;;;;;5075851;28;20175;-63
2022/05/26 03:29:05;;;;;;;1.37;1.03;;;15.70;99.90;;;;;;5059031;28;20246;-60
2022/05/26 03:31:32;;;;;;;1.30;1.20;;;15.70;99.90;;;;;;5077729;28;20171;-62
2022/05/26 03:42:24;;;;;;;2.17;1.20;;;15.90;99.90;;;;;;5075826;28;20504;-63
2022/05/26 03:44:49;;;;;;;3.60;1.13;;;15.90;99.90;;;;;;5075923;28;20195;-62
2022/05/26 03:47:15;;;;;;;4.43;1.23;;;15.90;99.90;;;;;;5076220;28;20558;-62
2022/05/26 03:49:41;;;;;;;1.33;1.00;;;16.00;99.90;;;;;;5075759;28;20160;-63
2022/05/26 03:52:07;;;;;;;3.97;0.97;;;16.00;99.90;;;;;;5075701;28;20159;-62
2022/05/26 03:54:33;;;;;;;0.93;0.90;;;16.00;99.90;;;;;;5075678;28;20243;-62
2022/05/26 03:56:59;;;;;;;1.10;1.00;;;16.10;99.90;;;;;;5075923;28;20167;-61
2022/05/26 03:59:24;;;;;;;1.67;1.20;;;16.10;99.90;;;;;;5068916;28;20214;-62
2022/05/26 04:01:50;;;;;;;1.30;1.00;;;16.20;99.90;;;;;;5076107;28;20458;-63
2022/05/26 04:04:17;;;;;;;2.93;1.03;;;16.20;99.90;;;;;;5076404;28;20676;-63
2022/05/26 04:06:43;;;;;;;1.10;1.00;;;16.10;99.90;;;;;;5078200;28;20172;-65
2022/05/26 04:09:08;;;;;;;1.03;0.97;;;16.20;99.90;;;;;;5087819;28;20515;-63
2022/05/26 04:11:35;;;;;;;1.10;1.00;;;16.20;99.90;;;;;;5087955;28;20159;-62
2022/05/26 04:14:01;;;;;;;1.23;1.13;;;16.20;99.90;;;;;;5089636;28;20187;-61
2022/05/26 04:16:27;;;;;;;1.33;1.23;;;16.30;99.90;;;;;;5076449;28;20187;-62
2022/05/26 04:18:52;;;;;;;1.20;1.10;;;16.30;99.90;;;;;;5076325;28;20217;-61
2022/05/26 04:21:18;;;;;;;2.00;1.10;;;16.20;99.90;;;;;;5075808;28;20234;-63
2022/05/26 04:23:44;;;;;;;1.50;1.10;;;16.20;99.90;;;;;;5075225;28;20264;-62
2022/05/26 04:26:10;;;;;;;2.17;0.97;;;16.30;99.90;;;;;;5075089;28;20168;-63
2022/05/26 04:28:36;;;;;;;1.00;1.00;;;16.30;99.90;;;;;;5074869;28;20504;-61
2022/05/26 04:31:02;;;;;;;1.80;1.10;;;16.40;99.90;;;;;;5075253;28;20206;-61
2022/05/26 04:33:29;;;;;;;4.30;1.10;;;16.40;99.90;;;;;;5075630;28;20493;-63
2022/05/26 04:35:54;;;;;;;2.30;1.10;;;16.40;99.90;;;;;;5074675;28;20172;-62
2022/05/26 04:38:20;;;;;;;1.17;1.07;;;16.50;99.90;;;;;;5075113;28;20164;-63
2022/05/26 04:40:56;;;;;;;1.63;1.10;;;16.50;99.90;;;;;;5074980;28;20168;-61
2022/05/26 04:43:21;;;;;;;1.60;1.20;;;16.70;99.90;;;;;;5074596;28;20195;-62
2022/05/26 04:45:47;;;;;;;2.30;1.00;;;16.70;99.90;;;;;;5056983;28;20176;-62
2022/05/26 04:48:13;;;;;;;2.07;1.13;;;16.80;99.90;;;;;;5074819;28;20175;-62
2022/05/26 04:50:39;;;;;;;2.03;1.30;;;16.90;99.90;;;;;;5074827;28;20166;-62
2022/05/26 04:53:05;;;;;;;1.50;1.20;;;16.90;99.90;;;;;;5077073;28;20167;-61
2022/05/26 04:55:30;;;;;;;1.73;1.08;;;16.90;99.90;;;;;;5078752;28;20178;-61
2022/05/26 04:57:56;;;;;;;2.07;1.13;;;17.00;99.90;;;;;;5078355;28;20293;-61
2022/05/26 05:00:21;;;;;;;2.05;1.45;;;17.00;99.90;;;;;;5075495;28;20231;-62
2022/05/26 05:02:47;;;;;;;4.45;1.70;;;17.10;99.90;;;;;;5074494;28;20191;-63
2022/05/26 05:05:13;;;;;;;1.40;1.30;;;17.10;99.90;;;;;;5074739;28;20175;-62
2022/05/26 05:07:38;;;;;;;0.80;0.80;;;17.10;99.90;;;;;;5074907;28;20545;-61
2022/05/26 05:10:04;;;;;;;1.20;1.10;;;17.20;99.90;;;;;;5074443;28;20191;-62
2022/05/26 05:12:30;;;;;;;2.00;1.05;;;17.30;99.90;;;;;;5074513;28;20598;-62
2022/05/26 05:14:56;;;;;;;3.47;1.23;;;17.30;99.90;;;;;;5073789;28;20168;-62
2022/05/26 05:17:24;;;;;;;1.20;1.08;;;17.30;99.90;;;;;;5074292;28;20226;-62
2022/05/26 05:19:50;;;;;;;2.90;1.23;;;17.40;99.00;;;;;;5073841;28;20484;-63
2022/05/26 05:22:25;;;;;;;2.53;1.10;;;17.30;99.20;;;;;;5073940;28;20164;-61
2022/05/26 05:25:23;;;;;;;3.05;1.63;;;17.40;99.90;;;;;;5073960;28;20187;-62
2022/05/26 05:27:51;;;;;;;3.30;1.10;;;17.40;99.90;;;;;;5061053;28;20227;-64
2022/05/26 05:30:43;;;;;;;3.38;1.17;;;17.40;99.90;;;;;;5074538;28;20160;-63
2022/05/26 05:33:27;;;;;;;2.42;1.90;;;17.50;99.90;;;;;;5073464;28;20220;-62
2022/05/26 05:36:09;;;;;;;2.65;1.75;;;17.40;99.90;;;;;;5073565;28;20163;-61
2022/05/26 05:38:38;;;;;;;1.10;1.00;;;17.50;99.90;;;;;;5074153;28;20212;-62
2022/05/26 05:41:04;;;;;;;1.08;0.93;;;17.50;99.80;;;;;;5073676;28;20159;-63
2022/05/26 05:43:31;;;;;;;1.58;1.13;;;17.60;99.90;;;;;;5073798;28;20284;-63
2022/05/26 05:45:57;;;;;;;1.45;1.10;;;17.50;99.90;;;;;;5073309;28;20160;-62
2022/05/26 05:48:22;;;;;;;4.22;0.98;;;17.50;99.80;;;;;;5073713;28;20174;-63
2022/05/26 05:50:48;;;;;;;1.08;0.80;;;17.60;99.90;;;;;;5073577;28;20257;-63
2022/05/26 05:53:15;;;;;;;1.08;0.70;;;17.70;99.90;;;;;;5055667;28;20270;-62
2022/05/26 05:55:41;;;;;;;1.60;0.80;;;17.70;99.90;;;;;;5055723;28;20229;-63
2022/05/26 05:58:08;;;;;;;1.17;1.00;;;17.80;99.60;;;;;;5073751;28;20634;-62
2022/05/26 06:00:34;;;;;;;0.85;0.82;;;17.80;99.90;;;;;;5073540;28;20638;-62
2022/05/26 06:03:00;;;;;;;0.70;0.70;;;17.90;99.70;;;;;;5073553;28;20163;-62
2022/05/26 06:05:26;;;;;;;1.10;0.70;;;17.90;99.50;;;;;;5073903;28;20167;-62
2022/05/26 06:07:52;;;;;;;1.15;0.90;;;17.80;98.90;;;;;;5076135;28;20179;-62
2022/05/26 06:10:18;;;;;;;0.70;0.70;;;17.80;99.60;;;;;;5078041;28;20250;-62
2022/05/26 06:12:45;;;;;;;5.30;1.10;;;17.80;99.60;;;;;;5081119;28;20566;-62
2022/05/26 06:15:11;;;;;;;1.20;1.10;;;17.70;99.50;;;;;;5074140;28;20411;-62
2022/05/26 06:17:37;;;;;;;1.25;0.88;;;17.80;99.60;;;;;;5073160;28;20159;-61
2022/05/26 06:20:04;;;;;;;3.30;1.10;;;17.70;99.50;;;;;;5073186;28;20160;-61
2022/05/26 06:22:30;;;;;;;1.75;0.90;;;17.70;99.80;;;;;;5072850;28;20530;-62
2022/05/26 06:24:56;;;;;;;0.80;0.80;;;17.80;99.90;;;;;;5073695;28;20199;-61
2022/05/26 06:30:14;;;;;;;3.70;1.08;;;17.60;99.90;;;;;;5073142;28;20162;-64
2022/05/26 06:38:15;;;;;;;2.25;1.10;;;17.60;99.90;;;;;;5076616;28;20661;-61
2022/05/26 06:40:42;;;;;;;0.75;0.75;;;17.80;99.90;;;;;;5077947;28;20277;-61
2022/05/26 06:43:07;;;;;;;5.20;1.02;;;17.80;99.90;;;;;;5075590;28;20335;-63
2022/05/26 06:45:36;;;;;;;1.73;0.80;;;17.80;99.90;;;;;;5072891;28;20163;-63
2022/05/26 06:48:02;;;;;;;1.55;1.10;;;17.80;99.90;;;;;;5073573;28;20167;-63
2022/05/26 06:50:27;;;;;;;3.08;0.90;;;17.90;99.90;;;;;;5074982;28;20171;-67
2022/05/26 06:52:53;;;;;;;2.35;1.02;;;18.00;99.90;;;;;;5073820;28;20188;-62
2022/05/26 06:55:19;;;;;;;1.95;0.82;;;18.10;99.70;;;;;;5074114;28;20554;-63
2022/05/26 06:57:44;;;;;;;1.20;1.00;;;18.10;99.30;;;;;;5074829;28;20164;-62
2022/05/26 07:00:12;;;;;;;1.10;1.00;;;18.10;99.20;;;;;;5072668;28;20234;-62
2022/05/26 07:02:38;;;;;;;4.15;0.88;;;18.20;99.80;;;;;;5072834;28;20225;-63
2022/05/26 07:05:04;;;;;;;2.75;1.00;;;18.10;99.10;;;;;;5072221;28;20223;-63
2022/05/26 07:07:32;;;;;;;1.65;1.05;;;18.20;99.20;;;;;;5056319;28;20187;-61
2022/05/26 07:09:58;;;;;;;0.93;0.90;;;18.40;99.00;;;;;;5076043;28;20461;-63
2022/05/26 07:12:24;;;;;;;1.55;0.90;;;18.50;99.20;;;;;;5076284;28;20300;-62
2022/05/26 07:14:50;;;;;;;4.03;0.98;;;18.60;99.90;;;;;;5075868;28;20191;-64
2022/05/26 07:17:16;;;;;;;0.95;0.90;;;18.70;99.40;;;;;;5076098;28;20163;-63
2022/05/26 07:19:42;;;;;;;1.48;0.88;;;18.60;98.40;;;;;;5076382;28;20171;-63
2022/05/26 07:22:08;;;;;;;2.53;1.10;;;18.40;98.40;;;;;;5076263;28;20174;-63
2022/05/26 07:24:34;;;;;;;0.88;0.80;;;18.50;98.20;;;;;;5075801;28;20630;-62
2022/05/26 07:27:00;;;;;;;0.75;0.75;;;18.40;98.30;;;;;;5076081;28;20167;-64
2022/05/26 07:29:27;;;;;;;1.25;0.90;;;18.40;98.50;;;;;;5076639;28;20156;-62
2022/05/26 07:31:53;;;;;;;1.85;0.88;;;18.60;98.70;;;;;;5076332;28;20609;-63
2022/05/26 07:34:18;;;;;;;1.63;0.70;;;18.60;98.40;;;;;;5075950;28;20167;-63
2022/05/26 07:42:18;;;;;;;1.77;0.90;;;18.80;98.90;;;;;;5075938;28;20198;-62
2022/05/26 07:44:47;;;;;;;1.15;0.90;;;18.90;98.70;;;;;;5075658;28;20286;-62
2022/05/26 07:47:14;;;;;;;0.80;0.80;;;18.80;99.30;;;;;;5075537;28;20579;-61
2022/05/26 07:49:42;;;;;;;1.67;1.00;;;18.90;99.60;;;;;;5075574;28;20168;-63
2022/05/26 07:52:09;;;;;;;1.15;0.82;;;19.00;99.20;;;;;;5075887;28;20561;-62
2022/05/26 07:54:35;;;;;;;1.48;1.08;;;19.10;98.60;;;;;;5075539;28;20168;-63
2022/05/26 07:57:02;;;;;;;2.67;1.10;;;19.10;98.30;;;;;;5075375;28;20187;-63
2022/05/26 07:59:28;;;;;;;0.80;0.70;;;19.10;98.20;;;;;;5075333;28;20176;-64
2022/05/26 08:01:54;;;;;;;1.00;0.90;;;19.10;97.80;;;;;;5075176;28;20163;-61
2022/05/26 08:04:20;;;;;;;1.30;0.80;;;19.30;99.20;;;;;;5075458;28;20200;-63
2022/05/26 08:06:47;;;;;;;2.08;1.13;;;19.40;98.30;;;;;;5075106;28;20246;-64
2022/05/26 08:09:15;;;;;;;1.10;0.90;;;19.40;97.80;;;;;;5074958;28;20163;-62
2022/05/26 08:11:41;;;;;;;1.55;0.95;;;19.40;97.20;;;;;;5075273;28;20259;-63
2022/05/26 08:14:06;;;;;;;0.88;0.88;;;19.50;98.00;;;;;;5074976;28;20217;-64
2022/05/26 08:16:32;;;;;;;1.10;1.00;;;19.50;96.60;;;;;;5074712;28;20171;-63
2022/05/26 08:18:58;;;;;;;3.42;0.90;;;19.40;96.50;;;;;;5074401;28;20163;-65
2022/05/26 08:21:23;;;;;;;2.67;0.90;;;19.60;97.00;;;;;;5074630;28;20160;-63
2022/05/26 08:23:49;;;;;;;1.77;1.10;;;19.50;96.50;;;;;;5076099;28;20198;-64
2022/05/26 08:26:15;;;;;;;0.95;0.90;;;19.60;97.40;;;;;;5074231;28;20275;-64
2022/05/26 08:28:42;;;;;;;1.08;1.00;;;19.80;98.00;;;;;;5074530;28;20156;-62
2022/05/26 08:31:10;;;;;;;1.20;1.10;;;19.90;97.10;;;;;;5074316;28;20155;-65
2022/05/26 08:33:37;;;;;;;1.42;1.00;;;19.80;96.90;;;;;;5074237;28;20171;-62
2022/05/26 08:36:08;;;;;;;1.25;0.80;;;20.10;97.50;;;;;;5073821;28;20236;-63
2022/05/26 08:38:35;;;;;;;0.70;0.70;;;20.00;97.00;;;;;;5074124;28;20178;-63
2022/05/26 08:41:02;;;;;;;1.85;0.90;;;19.90;97.70;;;;;;5074026;28;20191;-62
2022/05/26 08:43:41;;;;;;;2.15;1.10;;;19.80;97.40;;;;;;5074589;28;20294;-64
2022/05/26 08:46:09;;;;;;;0.90;0.90;;;19.80;97.90;;;;;;5074948;28;20204;-63
2022/05/26 08:48:45;;;;;;;1.30;0.95;;;20.00;97.90;;;;;;5074896;28;20160;-62
2022/05/26 08:51:17;;;;;;;2.05;0.98;;;20.10;97.90;;;;;;5076581;28;20159;-64
2022/05/26 08:53:43;;;;;;;0.80;0.80;;;20.10;97.90;;;;;;5078290;28;20595;-63
2022/05/26 08:56:11;;;;;;;1.10;1.00;;;20.10;97.60;;;;;;5077512;28;20170;-66
2022/05/26 08:58:44;;;;;;;0.70;0.70;;;20.00;97.20;;;;;;5077444;28;20226;-62
2022/05/26 09:01:12;;;;;;;1.00;0.88;;;20.10;96.80;;;;;;5074824;28;20255;-63
2022/05/26 09:03:38;;;;;;;0.95;0.80;;;19.80;96.80;;;;;;5057112;28;20207;-63
2022/05/26 09:06:11;;;;;;;2.47;0.80;;;19.80;97.40;;;;;;5074666;28;20595;-63
2022/05/26 09:14:34;;;;;;;1.08;0.93;;;19.60;98.60;;;;;;5073765;28;20338;-63
2022/05/26 09:17:04;;;;;;;1.38;0.80;;;20.00;98.60;;;;;;5073630;28;20616;-62
2022/05/26 09:19:45;;;;;;;1.10;0.90;;;20.30;96.90;;;;;;5074073;28;20202;-64
2022/05/26 09:22:45;;;;;;;1.80;0.95;;;20.20;97.20;;;;;;5074556;28;20193;-63
2022/05/26 09:25:36;;;;;;;1.60;0.90;;;20.20;96.60;;;;;;5055752;28;20658;-64
2022/05/26 09:28:02;;;;;;;5.15;1.00;;;20.30;96.40;;;;;;5074126;28;20487;-63
2022/05/26 09:30:33;;;;;;;8.02;1.08;;;20.20;96.80;;;;;;5073166;28;20162;-64
2022/05/26 09:32:58;;;;;;;0.77;0.77;;;20.20;95.90;;;;;;5073735;28;20168;-66
2022/05/26 09:35:32;;;;;;;3.47;1.05;;;20.10;95.20;;;;;;5074856;28;20563;-65
2022/05/26 09:38:02;;;;;;;2.90;0.80;;;20.00;95.80;;;;;;5074445;28;20159;-65
2022/05/26 09:40:34;;;;;;;0.80;0.80;;;20.00;96.50;;;;;;5075543;28;20209;-67
2022/05/26 09:43:08;;;;;;;1.58;1.00;;;19.80;97.00;;;;;;5059440;28;20246;-65
2022/05/26 09:45:45;;;;;;;0.98;0.90;;;19.80;97.10;;;;;;5077299;28;20496;-64
2022/05/26 09:48:18;;;;;;;0.52;0.52;;;20.40;96.80;;;;;;5077204;28;20203;-64
2022/05/26 09:51:04;;;;;;;5.18;1.20;;;20.70;94.90;;;;;;5079091;28;20225;-65
2022/05/26 09:53:38;;;;;;;2.22;0.93;;;21.00;93.80;;;;;;5078666;28;20171;-64
2022/05/26 09:56:05;;;;;;;1.30;1.10;;;20.90;92.90;;;;;;5078837;28;20183;-65
2022/05/26 09:58:34;;;;;;;2.47;0.93;;;20.60;93.30;;;;;;5063027;28;20620;-66
2022/05/26 10:01:02;;;;;;;1.00;0.82;;;20.80;93.40;;;;;;5080249;28;20219;-66
2022/05/26 10:03:53;;;;;;;1.45;0.73;;;20.50;93.80;;;;;;5058988;28;20591;-68
2022/05/26 10:06:32;;;;;;;2.60;0.93;;;20.50;93.30;;;;;;5074305;28;20236;-66
2022/05/26 10:09:16;;;;;;;0.73;0.73;;;20.50;94.50;;;;;;5073686;28;20216;-68
2022/05/26 10:12:03;;;;;;;1.42;1.00;;;20.90;93.80;;;;;;5073098;28;20170;-65
2022/05/26 10:15:02;;;;;;;0.60;0.60;;;21.20;91.40;;;;;;5073521;28;20592;-63
2022/05/26 10:17:30;;;;;;;0.80;0.80;;;21.30;89.10;;;;;;5055449;28;20179;-67
2022/05/26 10:20:11;;;;;;;1.25;1.15;;;21.40;87.80;;;;;;5073361;28;20167;-66
2022/05/26 10:23:04;;;;;;;1.13;0.73;;;21.20;89.50;;;;;;5072966;28;20159;-65
2022/05/26 10:25:37;;;;;;;0.70;0.70;;;21.10;89.60;;;;;;5073367;28;20175;-65
2022/05/26 10:28:27;;;;;;;1.05;0.95;;;20.90;90.50;;;;;;5073336;28;20175;-66
2022/05/26 10:31:21;;;;;;;0.95;0.80;;;20.70;90.80;;;;;;5073502;28;20156;-68
2022/05/26 10:34:05;;;;;;;0.95;0.85;;;21.30;87.60;;;;;;5072562;28;20607;-66
2022/05/26 10:36:55;;;;;;;0.70;0.70;;;21.70;85.80;;;;;;5073451;28;20184;-64
2022/05/26 10:39:23;;;;;;;1.52;0.90;;;22.10;81.50;;;;;;5073486;28;20176;-66
2022/05/26 10:41:59;;;;;;;0.80;0.80;;;22.20;83.90;;;;;;5073855;28;20180;-64
2022/05/26 10:44:52;;;;;;;0.82;0.80;;;22.10;81.80;;;;;;5058699;28;20234;-66
2022/05/26 10:47:32;;;;;;;0.80;0.80;;;21.70;82.60;;;;;;5077410;28;20174;-65
2022/05/26 10:50:28;;;;;;;1.95;0.95;;;22.00;84.20;;;;;;5077196;28;20153;-67
2022/05/26 10:53:20;;;;;;;1.20;0.70;;;21.90;83.00;;;;;;5062025;28;20228;-66
2022/05/26 10:56:17;;;;;;;1.58;0.90;;;22.60;82.50;;;;;;5042564;28;20198;-65
2022/05/26 10:58:47;;;;;;;7.72;0.80;;;22.90;80.30;;;;;;5085304;28;20187;-67
2022/05/26 11:01:48;;;;;;;2.40;0.90;;;22.30;81.80;;;;;;5079232;28;20223;-68
2022/05/26 11:04:40;;;;;;;0.85;0.70;;;21.70;85.20;;;;;;5076158;28;20610;-68
2022/05/26 11:07:11;;;;;;;1.40;0.90;;;21.80;86.40;;;;;;5076433;28;20179;-65
2022/05/26 11:09:47;;;;;;;0.98;0.70;;;21.70;83.10;;;;;;5076632;28;20152;-69
2022/05/26 11:12:36;;;;;;;0.80;0.80;;;21.50;84.10;;;;;;5076303;28;20676;-65
2022/05/26 11:18:25;;;;;;;1.00;0.90;;;21.50;85.90;;;;;;5086691;28;20208;-69
2022/05/26 11:20:57;;;;;;;2.83;0.93;;;21.40;88.10;;;;;;5076988;28;20517;-66
2022/05/26 11:23:24;;;;;;;1.88;1.20;;;21.20;89.60;;;;;;5076307;28;20207;-66
2022/05/26 11:28:30;;;;;;;0.93;0.82;;;21.20;89.00;;;;;;5113497;28;20267;-66
2022/05/26 11:36:54;;;;;;;1.00;0.90;;;21.60;88.90;;;;;;5116740;28;20161;-68
2022/05/26 11:39:29;;;;;;;0.88;0.77;;;21.40;89.90;;;;;;5116686;28;20177;-67
2022/05/26 11:42:14;;;;;;;0.90;0.82;;;21.20;89.00;;;;;;5116912;28;20464;-66
2022/05/26 11:44:56;;;;;;;0.82;0.82;;;21.30;89.10;;;;;;5117134;28;20200;-66
2022/05/26 11:47:47;;;;;;;0.82;0.82;;;21.30;88.70;;;;;;5116855;28;20196;-68
2022/05/26 11:50:53;;;;;;;1.30;1.02;;;21.50;89.20;;;;;;5116481;28;20166;-64
2022/05/26 11:53:27;;;;;;;2.47;1.08;;;21.60;89.30;;;;;;5096968;28;20170;-67
2022/05/26 11:55:58;;;;;;;1.65;1.00;;;21.80;90.60;;;;;;5116116;28;20617;-66
2022/05/26 11:58:28;;;;;;;1.23;0.98;;;21.70;89.00;;;;;;5115992;28;20253;-68
2022/05/26 12:01:33;;;;;;;2.85;1.17;;;21.50;88.80;;;;;;5116007;28;20166;-66
2022/05/26 12:04:32;;;;;;;1.05;0.85;;;21.00;90.10;;;;;;5115818;28;20190;-68
2022/05/26 12:07:03;;;;;;;1.05;0.98;;;20.80;90.70;;;;;;5116329;28;20182;-69
2022/05/26 12:09:42;;;;;;;0.90;0.77;;;20.60;91.10;;;;;;5115974;28;20193;-68
2022/05/26 12:12:33;;;;;;;1.10;1.00;;;20.80;91.30;;;;;;5115763;28;20490;-66
2022/05/26 12:15:09;;;;;;;1.10;1.00;;;21.60;91.50;;;;;;5116090;28;20207;-66
2022/05/26 12:17:40;;;;;;;3.92;1.15;;;21.80;90.80;;;;;;5116295;28;20634;-64
2022/05/26 12:20:12;;;;;;;2.53;1.08;;;21.90;90.70;;;;;;5115770;28;20254;-65
2022/05/26 12:23:01;;;;;;;2.15;0.98;;;22.50;90.00;;;;;;5115752;28;20261;-67
2022/05/26 12:25:33;;;;;;;1.10;1.00;;;22.20;90.20;;;;;;5115618;28;20198;-69
2022/05/26 12:28:14;;;;;;;1.45;1.00;;;21.90;90.30;;;;;;5115246;28;20226;-68
2022/05/26 12:30:46;;;;;;;3.45;1.20;;;21.60;89.60;;;;;;5115188;28;20212;-67
2022/05/26 12:33:20;;;;;;;2.97;1.20;;;21.70;90.20;;;;;;5115331;28;20233;-68
2022/05/26 12:36:19;;;;;;;3.15;1.20;;;22.70;89.90;;;;;;5115012;28;20189;-66
2022/05/26 12:39:06;;;;;;;1.95;1.00;;;22.70;86.00;;;;;;5115321;28;20159;-67
2022/05/26 12:41:41;;;;;;;3.70;1.33;;;22.30;84.50;;;;;;5115633;28;20158;-66
2022/05/26 12:44:34;;;;;;;2.83;1.23;;;21.90;88.90;;;;;;5114998;28;20197;-69
2022/05/26 12:47:22;;;;;;;1.33;1.05;;;22.00;86.50;;;;;;5115367;28;20228;-66
2022/05/26 12:50:17;;;;;;;1.85;1.10;;;21.60;89.20;;;;;;5116364;28;20588;-66
2022/05/26 12:52:57;;;;;;;1.40;1.30;;;21.50;90.10;;;;;;5101199;28;20614;-68
2022/05/26 12:55:41;;;;;;;1.33;1.23;;;21.30;90.20;;;;;;5116267;28;20550;-67
2022/05/26 12:58:26;;;;;;;3.83;1.40;;;21.10;90.30;;;;;;5121821;28;20154;-67
2022/05/26 13:00:54;;;;;;;2.63;1.15;;;21.30;90.90;;;;;;5120982;28;20170;-67
2022/05/26 13:03:31;;;;;;;1.30;1.20;;;21.40;90.40;;;;;;5118090;28;20315;-66
2022/05/26 13:06:13;;;;;;;1.35;1.23;;;21.70;89.00;;;;;;5116077;28;20166;-64
2022/05/26 13:09:18;;;;;;;1.10;1.00;;;22.20;87.10;;;;;;5116273;28;20150;-66
2022/05/26 13:12:04;;;;;;;3.72;1.25;;;22.10;90.40;;;;;;5034279;28;20557;-66
2022/05/26 13:14:46;;;;;;;2.20;1.30;;;22.10;88.10;;;;;;5033456;28;20760;-66
2022/05/26 13:17:18;;;;;;;1.67;1.10;;;23.10;85.60;;;;;;5033095;28;20279;-67
2022/05/26 13:19:49;;;;;;;1.88;1.15;;;23.30;83.80;;;;;;5032290;28;20199;-68
2022/05/26 13:22:37;;;;;;;1.88;1.25;;;22.90;84.00;;;;;;5031615;28;20287;-67
2022/05/26 13:25:09;;;;;;;2.47;1.00;;;22.70;84.60;;;;;;5031749;28;20227;-68
2022/05/26 13:27:49;;;;;;;0.90;0.90;;;22.50;85.60;;;;;;5031875;28;20216;-68
2022/05/26 13:33:07;;;;;;;8.50;1.30;;;21.90;82.10;;;;;;5032307;28;20312;-67
2022/05/26 13:35:42;;;;;;;1.63;1.00;;;21.70;84.70;;;;;;5031667;28;20532;-67
2022/05/26 13:38:22;;;;;;;2.85;1.30;;;21.50;84.60;;;;;;5015562;28;20302;-67
2022/05/26 13:40:48;;;;;;;2.70;1.17;;;21.40;84.30;;;;;;5031608;28;20188;-67
2022/05/26 13:43:15;;;;;;;1.83;0.90;;;21.20;84.70;;;;;;5031600;28;20183;-66
2022/05/26 13:45:43;;;;;;;0.85;0.85;;;21.10;85.70;;;;;;5075037;28;20192;-68
2022/05/26 13:48:30;;;;;;;0.80;0.80;;;21.10;86.90;;;;;;5113810;28;20207;-69
2022/05/26 13:51:18;;;;;;;1.52;1.00;;;21.00;87.40;;;;;;5113339;28;20200;-65
2022/05/26 13:54:05;;;;;;;0.80;0.80;;;21.00;88.00;;;;;;5114008;28;20197;-68
2022/05/26 13:56:34;;;;;;;1.65;1.20;;;21.00;89.10;;;;;;5113831;28;20185;-65
2022/05/26 13:59:11;;;;;;;4.65;1.40;;;21.00;89.20;;;;;;5114420;28;20163;-65
2022/05/26 14:01:40;;;;;;;1.75;1.30;;;21.10;90.10;;;;;;5113726;28;20245;-66